This is the latest recevied weather packets stored in our database for station/object KQ7A. If no packets are shown the sender has not sent any weather packets the latest 10 day(s).
| Time | Temp. | Humidity | Pressure | Rain* | Wind** | Luminosity | Snow |
|---|---|---|---|---|---|---|---|
| 1777651117 | 12.22° C | 53% | 1021.5 hPa | 0 mm | - | 420 W/m² | - |
| 1777650813 | 11.67° C | 51% | 1021.3 hPa | 0 mm | - | 390 W/m² | - |
| 1777650510 | 12.22° C | 49% | 1021.9 hPa | 0 mm | - | 397 W/m² | - |
| 1777650208 | 12.22° C | 52% | 1021.4 hPa | 0 mm | - | 374 W/m² | - |
| 1777649905 | 12.22° C | 52% | 1021.5 hPa | 0 mm | - | 352 W/m² | - |
| 1777649603 | 11.67° C | 51% | 1021.5 hPa | 0 mm | - | 297 W/m² | - |
| 1777649298 | 10.56° C | 56% | 1021.5 hPa | 0 mm | - | 318 W/m² | - |
| 1777648996 | 10° C | 58% | 1021.6 hPa | 0 mm | - | 305 W/m² | - |
| 1777648693 | 10° C | 59% | 1021.4 hPa | 0 mm | - | 265 W/m² | - |
| 1777648389 | 9.44° C | 57% | 1021.4 hPa | 0 mm | - | 267 W/m² | - |
| 1777648085 | 8.89° C | 60% | 1021.2 hPa | 0 mm | - | 249 W/m² | - |
| 1777647782 | 8.89° C | 59% | 1021.4 hPa | 0 mm | - | 228 W/m² | - |
| 1777647478 | 8.89° C | 63% | 1021.6 hPa | 0 mm | - | 216 W/m² | - |
| 1777647175 | 8.33° C | 60% | 1021.5 hPa | 0 mm | - | 200 W/m² | - |
| 1777646872 | 7.78° C | 65% | 1021.4 hPa | 0 mm | - | 154 W/m² | - |
| 1777646567 | 7.22° C | 65% | 1021.6 hPa | 0 mm | - | 118 W/m² | - |
| 1777646264 | 7.22° C | 65% | 1021.4 hPa | 0 mm | - | 113 W/m² | - |
| 1777645961 | 7.22° C | 66% | 1021.3 hPa | 0 mm | - | 99 W/m² | - |
| 1777645658 | 7.78° C | 63% | 1021.4 hPa | 0 mm | - | 85 W/m² | - |
| 1777645354 | 8.33° C | 58% | 1021.4 hPa | 0 mm | - | 90 W/m² | - |
| 1777645050 | 7.78° C | 55% | 1021.2 hPa | 0 mm | - | 57 W/m² | - |
| 1777644747 | 6.67° C | 57% | 1020.9 hPa | 0 mm | - | 51 W/m² | - |
| 1777644439 | 6.11° C | 67% | 1020.9 hPa | 0 mm | - | 46 W/m² | - |
| 1777644135 | 5.56° C | 65% | 1020.9 hPa | 0 mm | - | 42 W/m² | - |
| 1777643831 | 3.89° C | 72% | 1020.7 hPa | 0 mm | - | 38 W/m² | - |
* Rain latest hour (hover to see other rain measurements)
** Current wind speed in m/s (hover to see current wind gust speed)